Time;durP1;ratioP1;P1;durP2;ratioP2;P2;SDS_P1;SDS_P2;PMS_P1;PMS_P2;Temp;Humidity;BMP_temperature;BMP_pressure;BME280_temperature;BME280_humidity;BME280_pressure;Samples;Min_cycle;Max_cycle;Signal;HPM_P1;HPM_P2
2021/06/04 00:01:13;;;;;;;61.83;55.42;;;19.90;82.30;;;;;;5041049;28;20037;-87
2021/06/04 00:03:38;;;;;;;58.10;52.25;;;19.90;82.30;;;;;;4991062;28;20500;-89
2021/06/04 00:06:05;;;;;;;62.53;56.17;;;19.80;82.20;;;;;;5009478;28;20120;-87
2021/06/04 00:08:33;;;;;;;62.40;52.40;;;19.80;82.20;;;;;;4984363;28;20041;-88
2021/06/04 00:11:02;;;;;;;59.70;53.53;;;19.80;82.20;;;;;;5020893;28;20043;-89
2021/06/04 00:13:31;;;;;;;59.67;53.45;;;19.80;82.30;;;;;;5010009;28;20061;-89
2021/06/04 00:16:01;;;;;;;57.70;51.88;;;19.70;82.30;;;;;;5020082;28;20037;-90
2021/06/04 00:18:28;;;;;;;60.67;54.38;;;19.70;82.30;;;;;;5036804;28;20041;-88
2021/06/04 00:20:54;;;;;;;60.67;54.67;;;19.70;82.30;;;;;;5019726;28;20454;-87
2021/06/04 00:23:20;;;;;;;60.65;54.03;;;19.70;82.40;;;;;;5036371;28;20091;-90
2021/06/04 00:25:45;;;;;;;60.28;53.67;;;19.70;82.40;;;;;;5036552;28;20063;-89
2021/06/04 00:28:11;;;;;;;60.72;54.47;;;19.60;82.40;;;;;;5026766;28;20045;-90
2021/06/04 00:30:37;;;;;;;59.47;53.17;;;19.60;82.50;;;;;;5015685;28;20042;-89
2021/06/04 00:33:03;;;;;;;59.10;52.75;;;19.60;82.50;;;;;;4999437;28;20398;-89
2021/06/04 00:35:30;;;;;;;58.75;50.33;;;19.60;82.60;;;;;;5016383;28;20049;-90
2021/06/04 00:37:55;;;;;;;57.33;51.10;;;19.50;82.40;;;;;;5016519;28;20436;-88
2021/06/04 00:40:25;;;;;;;54.97;49.25;;;19.50;82.40;;;;;;4967583;28;20073;-89
2021/06/04 00:42:51;;;;;;;57.30;51.13;;;19.50;82.30;;;;;;4984245;28;20072;-90
2021/06/04 00:45:21;;;;;;;57.13;48.17;;;19.50;82.20;;;;;;4991888;28;20450;-90
2021/06/04 00:47:47;;;;;;;57.15;50.58;;;19.50;82.30;;;;;;5019886;28;20655;-90
2021/06/04 00:50:17;;;;;;;57.75;50.83;;;19.50;82.30;;;;;;5002990;28;20077;-90
2021/06/04 00:52:43;;;;;;;58.78;52.20;;;19.50;82.30;;;;;;5003728;28;20037;-88
2021/06/04 00:55:11;;;;;;;55.67;49.47;;;19.50;82.30;;;;;;5002579;28;20052;-89
2021/06/04 00:57:37;;;;;;;59.33;52.92;;;19.40;82.20;;;;;;5003491;28;20037;-88
2021/06/04 01:00:07;;;;;;;63.28;52.65;;;19.40;82.20;;;;;;5002273;28;20067;-88
2021/06/04 01:02:33;;;;;;;59.50;52.67;;;19.40;82.20;;;;;;5003252;28;20044;-89
2021/06/04 01:04:59;;;;;;;61.13;52.22;;;19.40;82.30;;;;;;5002658;28;20047;-87
2021/06/04 01:07:47;;;;;;;61.08;52.40;;;19.40;82.20;;;;;;5018953;28;20045;-88
2021/06/04 01:10:18;;;;;;;65.60;53.17;;;19.40;82.20;;;;;;5000571;28;20041;-90
2021/06/04 01:12:56;;;;;;;66.93;55.53;;;19.30;82.10;;;;;;5013832;28;20124;-90
2021/06/04 01:15:33;;;;;;;63.33;52.67;;;19.30;82.10;;;;;;5014218;28;20518;-89
2021/06/04 01:18:09;;;;;;;60.00;53.05;;;19.30;82.10;;;;;;5015880;28;20109;-90
2021/06/04 01:20:46;;;;;;;59.15;50.65;;;19.30;82.10;;;;;;5000492;28;20433;-90
2021/06/04 01:23:42;;;;;;;61.95;53.05;;;19.30;82.10;;;;;;4986382;28;20049;-90
2021/06/04 01:26:20;;;;;;;64.78;54.03;;;19.30;82.00;;;;;;5034914;28;20033;-88
2021/06/04 01:28:51;;;;;;;63.13;53.15;;;19.20;82.00;;;;;;5056378;28;20045;-90
2021/06/04 01:31:25;;;;;;;66.57;54.43;;;19.20;81.90;;;;;;5021944;28;20065;-91
2021/06/04 01:34:07;;;;;;;60.47;52.50;;;19.20;81.90;;;;;;5036746;28;20052;-90
2021/06/04 01:36:42;;;;;;;64.28;53.45;;;19.20;81.90;;;;;;5020877;28;20212;-89
2021/06/04 01:39:14;;;;;;;59.90;53.05;;;19.10;81.90;;;;;;4988073;28;20052;-90
2021/06/04 01:41:40;;;;;;;;;;;19.10;81.90;;;;;;5003812;28;20060;-88
2021/06/04 01:44:12;;;;;;;63.78;53.83;;;19.10;81.60;;;;;;5015645;28;19921;-87
2021/06/04 01:46:42;;;;;;;59.35;52.35;;;19.10;81.90;;;;;;5000315;28;20045;-90
2021/06/04 01:49:23;;;;;;;64.82;53.15;;;19.10;81.90;;;;;;4999328;28;20549;-87
2021/06/04 01:52:07;;;;;;;64.60;52.45;;;19.10;82.00;;;;;;4984241;28;20056;-90
2021/06/04 01:54:42;;;;;;;62.85;52.35;;;19.00;81.90;;;;;;5001881;28;20087;-89
2021/06/04 01:57:11;;;;;;;62.53;52.80;;;19.00;82.00;;;;;;4999046;28;20072;-87
2021/06/04 01:59:41;;;;;;;61.58;50.17;;;19.00;82.00;;;;;;4998835;28;20049;-89
2021/06/04 02:02:07;;;;;;;57.55;50.95;;;19.00;82.00;;;;;;4984145;28;20041;-88
2021/06/04 02:04:35;;;;;;;61.65;51.90;;;19.00;81.90;;;;;;4998623;28;20057;-90
2021/06/04 02:07:03;;;;;;;61.33;49.72;;;19.00;82.00;;;;;;4999232;28;20041;-90
2021/06/04 02:09:29;;;;;;;60.63;50.65;;;19.00;82.00;;;;;;5031936;28;20547;-90
2021/06/04 02:11:55;;;;;;;60.67;51.75;;;18.90;81.90;;;;;;4982737;28;20064;-90
2021/06/04 02:14:33;;;;;;;54.22;46.08;;;18.90;82.10;;;;;;4998083;28;20057;-89
2021/06/04 02:17:02;;;;;;;58.38;50.40;;;18.90;82.00;;;;;;4999123;28;20050;-92
2021/06/04 02:19:31;;;;;;;58.92;49.72;;;18.90;82.10;;;;;;4998260;28;20049;-90
2021/06/04 02:22:12;;;;;;;57.08;50.22;;;18.90;82.10;;;;;;4999229;28;20049;-90
2021/06/04 02:25:04;;;;;;;57.60;48.15;;;18.90;82.20;;;;;;4983226;28;20042;-89
2021/06/04 02:27:41;;;;;;;54.42;47.75;;;18.80;82.20;;;;;;5001390;28;20050;-90
2021/06/04 02:30:21;;;;;;;57.90;48.33;;;18.80;82.30;;;;;;4984347;28;20111;-89
2021/06/04 02:32:57;;;;;;;56.85;48.40;;;18.80;82.40;;;;;;5015782;28;20037;-90
2021/06/04 02:35:26;;;;;;;56.55;47.50;;;18.80;82.50;;;;;;4982813;28;20152;-91
2021/06/04 02:38:16;;;;;;;56.67;48.30;;;18.80;82.50;;;;;;4998186;28;20044;-90
2021/06/04 02:40:45;;;;;;;54.35;47.35;;;18.70;82.50;;;;;;5000419;28;20061;-91
2021/06/04 02:43:15;;;;;;;54.58;48.50;;;18.70;82.50;;;;;;4998861;28;20053;-91
2021/06/04 02:46:11;;;;;;;58.38;48.67;;;18.70;82.60;;;;;;4983284;28;20552;-90
2021/06/04 02:48:36;;;;;;;58.00;49.38;;;18.70;82.70;;;;;;5001580;28;20143;-90
2021/06/04 02:51:49;;;;;;;57.28;48.05;;;18.70;82.70;;;;;;4999125;28;20069;-90
2021/06/04 02:54:20;;;;;;;59.88;48.63;;;18.60;82.50;;;;;;4933803;29;20083;-88
2021/06/04 02:56:54;;;;;;;59.83;50.20;;;18.60;82.70;;;;;;4995578;28;20064;-91
2021/06/04 02:59:28;;;;;;;57.78;49.75;;;18.60;82.70;;;;;;4986595;28;20148;-90
2021/06/04 03:01:58;;;;;;;61.28;49.88;;;18.50;82.70;;;;;;5003030;28;20037;-90
2021/06/04 03:04:27;;;;;;;61.03;49.58;;;18.50;82.70;;;;;;5002592;28;20184;-89
2021/06/04 03:06:56;;;;;;;55.78;48.58;;;18.50;82.70;;;;;;5005052;28;20552;-90
2021/06/04 03:09:34;;;;;;;58.85;48.03;;;18.50;82.80;;;;;;4988880;28;20049;-90
2021/06/04 03:12:03;;;;;;;53.03;47.30;;;18.50;83.40;;;;;;4986748;28;20069;-90
2021/06/04 03:14:28;;;;;;;58.45;48.10;;;18.40;82.80;;;;;;5002034;28;20065;-89
2021/06/04 03:16:55;;;;;;;59.40;49.58;;;18.40;82.90;;;;;;5002555;28;20042;-90
2021/06/04 03:19:22;;;;;;;60.40;48.70;;;18.40;82.90;;;;;;5005834;28;20139;-88
2021/06/04 03:21:52;;;;;;;55.40;48.30;;;18.40;82.90;;;;;;5002235;28;20091;-90
2021/06/04 03:24:23;;;;;;;55.92;47.17;;;18.30;82.90;;;;;;5001935;28;20051;-87
2021/06/04 03:26:59;;;;;;;52.17;44.70;;;18.30;82.90;;;;;;4986674;28;20151;-90
2021/06/04 03:29:25;;;;;;;56.33;47.45;;;18.30;82.90;;;;;;5018025;28;20440;-90
2021/06/04 03:31:53;;;;;;;56.00;46.67;;;18.30;83.00;;;;;;4986081;28;20053;-91
2021/06/04 03:34:19;;;;;;;51.28;45.60;;;18.30;83.00;;;;;;4986134;28;20045;-88
2021/06/04 03:36:48;;;;;;;52.50;46.67;;;18.30;83.10;;;;;;5001892;28;20099;-91
2021/06/04 03:39:17;;;;;;;59.22;48.97;;;18.20;83.10;;;;;;5002028;28;20174;-90
2021/06/04 03:41:47;;;;;;;58.55;48.05;;;18.20;83.10;;;;;;4985444;28;20545;-90
2021/06/04 03:44:18;;;;;;;55.25;49.15;;;18.20;83.10;;;;;;4986131;28;20069;-89
2021/06/04 03:46:46;;;;;;;58.03;48.47;;;18.20;83.20;;;;;;4985929;28;20087;-89
2021/06/04 03:49:12;;;;;;;56.53;47.75;;;18.20;83.30;;;;;;4985530;28;20045;-89
2021/06/04 03:51:40;;;;;;;57.92;48.10;;;18.20;83.40;;;;;;4984916;28;20053;-90
2021/06/04 03:54:07;;;;;;;56.17;47.17;;;18.20;83.40;;;;;;5001984;28;20077;-89
2021/06/04 03:56:33;;;;;;;54.65;48.17;;;18.20;83.40;;;;;;4984944;28;20048;-88
2021/06/04 03:58:59;;;;;;;58.58;49.55;;;18.20;83.50;;;;;;5018010;28;20072;-89
2021/06/04 04:01:33;;;;;;;59.08;50.08;;;18.10;83.50;;;;;;4984944;28;20470;-88
2021/06/04 04:03:59;;;;;;;56.95;47.42;;;18.20;83.70;;;;;;4985791;28;20055;-88
2021/06/04 04:06:24;;;;;;;57.40;48.75;;;18.10;83.60;;;;;;5017414;28;20045;-87
2021/06/04 04:08:50;;;;;;;57.20;49.10;;;18.20;83.70;;;;;;5001047;28;20041;-88
2021/06/04 04:11:16;;;;;;;57.25;48.45;;;18.10;83.70;;;;;;4968856;28;20080;-88
2021/06/04 04:13:42;;;;;;;58.20;50.10;;;18.20;83.80;;;;;;4983861;28;20057;-88
2021/06/04 04:16:08;;;;;;;56.58;50.45;;;18.10;83.80;;;;;;5000975;28;20050;-89
2021/06/04 04:18:34;;;;;;;58.70;50.20;;;18.10;83.90;;;;;;5000601;28;20037;-89
2021/06/04 04:21:03;;;;;;;60.40;50.42;;;18.10;84.00;;;;;;5017630;28;20143;-90
2021/06/04 04:23:34;;;;;;;59.90;50.28;;;18.10;84.10;;;;;;5000829;28;20044;-87
2021/06/04 04:26:01;;;;;;;60.83;50.38;;;18.10;84.20;;;;;;4985535;28;20041;-89
2021/06/04 04:28:30;;;;;;;60.05;50.08;;;18.10;84.10;;;;;;5000822;28;20049;-88
2021/06/04 04:30:56;;;;;;;62.45;49.45;;;18.10;84.20;;;;;;4985274;28;20072;-89
2021/06/04 04:33:22;;;;;;;61.40;51.30;;;18.00;84.10;;;;;;4984840;28;20045;-88
2021/06/04 04:35:48;;;;;;;59.72;50.80;;;18.00;84.20;;;;;;4968178;28;20199;-89
2021/06/04 04:38:20;;;;;;;61.95;47.15;;;18.10;84.20;;;;;;4984808;28;20041;-90
2021/06/04 04:40:46;;;;;;;;;;;18.00;84.20;;;;;;5017233;28;20132;-89
2021/06/04 04:43:14;;;;;;;60.28;49.22;;;18.00;83.90;;;;;;5033444;28;19944;-90
2021/06/04 04:45:53;;;;;;;65.57;53.33;;;18.00;84.00;;;;;;4973776;28;20371;-89
2021/06/04 04:48:20;;;;;;;63.33;52.70;;;18.00;84.10;;;;;;5034835;28;20565;-91
2021/06/04 04:50:46;;;;;;;60.35;51.28;;;18.10;84.30;;;;;;4983954;28;20103;-91
2021/06/04 04:53:13;;;;;;;63.63;54.67;;;18.00;85.10;;;;;;4985396;28;20610;-90
2021/06/04 04:55:40;;;;;;;59.17;51.22;;;18.10;84.50;;;;;;5000122;28;20110;-90
2021/06/04 04:58:07;;;;;;;64.63;52.95;;;18.00;84.50;;;;;;5000643;28;20453;-90
2021/06/04 05:00:34;;;;;;;66.28;54.17;;;18.00;84.50;;;;;;5000376;28;20127;-88
2021/06/04 05:03:00;;;;;;;61.28;52.80;;;18.10;84.50;;;;;;5000214;28;20045;-90
2021/06/04 05:05:28;;;;;;;63.13;53.42;;;18.00;84.40;;;;;;5000566;28;20049;-89
2021/06/04 05:07:54;;;;;;;64.75;53.55;;;18.00;84.40;;;;;;4999069;28;20041;-90
2021/06/04 05:10:20;;;;;;;70.68;56.45;;;18.00;84.40;;;;;;4999219;28;20456;-90
2021/06/04 05:12:47;;;;;;;64.43;55.13;;;18.10;84.50;;;;;;4982954;28;20053;-91
2021/06/04 05:15:16;;;;;;;66.80;57.22;;;18.10;84.50;;;;;;4980679;28;20050;-91
2021/06/04 05:17:43;;;;;;;67.15;57.10;;;18.10;84.50;;;;;;4979873;28;20080;-89
2021/06/04 05:20:10;;;;;;;68.38;56.35;;;18.10;84.50;;;;;;4997069;28;20077;-89
2021/06/04 05:22:38;;;;;;;67.40;56.80;;;18.10;84.60;;;;;;5016283;28;20180;-89
2021/06/04 05:25:12;;;;;;;63.03;55.47;;;18.10;84.60;;;;;;4998010;28;20116;-91
2021/06/04 05:27:39;;;;;;;68.80;57.45;;;18.10;84.60;;;;;;4980273;28;20065;-89
2021/06/04 05:30:15;;;;;;;69.82;58.58;;;18.10;84.50;;;;;;4996553;28;20347;-89
2021/06/04 05:32:42;;;;;;;70.63;56.78;;;18.10;84.70;;;;;;4980482;28;20038;-85
2021/06/04 05:35:16;;;;;;;73.18;59.72;;;18.20;84.70;;;;;;5013200;28;20057;-88
2021/06/04 05:37:44;;;;;;;72.97;61.35;;;18.20;84.70;;;;;;4980212;28;20042;-88
2021/06/04 05:40:13;;;;;;;68.35;58.65;;;18.20;84.80;;;;;;4998043;28;20052;-89
2021/06/04 05:42:38;;;;;;;70.22;59.85;;;18.20;84.80;;;;;;4997927;28;20137;-88
2021/06/04 05:45:06;;;;;;;73.40;59.95;;;18.20;84.80;;;;;;4982578;28;20070;-89
2021/06/04 05:47:31;;;;;;;72.22;59.28;;;18.20;84.90;;;;;;4980343;28;20121;-89
2021/06/04 05:49:57;;;;;;;70.57;59.88;;;18.30;85.00;;;;;;5011792;28;20069;-89
2021/06/04 05:52:23;;;;;;;64.88;56.30;;;18.30;85.10;;;;;;4996157;28;20080;-89
2021/06/04 05:54:49;;;;;;;69.63;57.75;;;18.30;85.00;;;;;;4979381;28;20129;-88
2021/06/04 05:57:15;;;;;;;69.85;57.45;;;18.30;84.90;;;;;;5000712;28;20045;-88
2021/06/04 05:59:41;;;;;;;67.57;55.47;;;18.40;84.90;;;;;;4995561;28;20497;-87
2021/06/04 06:02:07;;;;;;;63.10;53.50;;;18.40;85.00;;;;;;4997482;28;20041;-89
2021/06/04 06:04:35;;;;;;;66.88;55.10;;;18.40;84.70;;;;;;4980124;28;20052;-90
2021/06/04 06:07:01;;;;;;;63.15;52.88;;;18.40;84.70;;;;;;4995374;28;20049;-89
2021/06/04 06:09:27;;;;;;;61.35;52.78;;;18.40;84.70;;;;;;5012380;28;20050;-89
2021/06/04 06:11:52;;;;;;;62.70;51.08;;;18.40;84.50;;;;;;5011818;28;20042;-92
2021/06/04 06:14:18;;;;;;;60.05;49.78;;;18.50;84.50;;;;;;4995891;28;20061;-89
2021/06/04 06:16:45;;;;;;;60.05;49.03;;;18.50;84.50;;;;;;4989488;28;20068;-88
2021/06/04 06:19:12;;;;;;;55.97;47.55;;;18.50;84.30;;;;;;5016539;28;20132;-90
2021/06/04 06:21:45;;;;;;;53.38;44.97;;;18.50;84.30;;;;;;5015487;28;20128;-87
2021/06/04 06:24:11;;;;;;;51.17;44.30;;;18.50;84.10;;;;;;5000934;28;20479;-89
2021/06/04 06:26:38;;;;;;;52.78;42.50;;;18.60;83.80;;;;;;5015693;28;20041;-90
2021/06/04 06:29:06;;;;;;;52.22;43.13;;;18.60;83.60;;;;;;5022195;28;20091;-91
2021/06/04 06:31:39;;;;;;;53.38;43.05;;;18.60;83.80;;;;;;5019438;28;20052;-91
2021/06/04 06:34:05;;;;;;;53.47;44.63;;;18.60;83.80;;;;;;5041203;28;20045;-90
2021/06/04 06:36:32;;;;;;;52.60;44.63;;;18.60;83.90;;;;;;4999965;28;20139;-91
2021/06/04 06:39:12;;;;;;;48.50;41.65;;;18.60;83.80;;;;;;5019160;28;20046;-92
2021/06/04 06:41:39;;;;;;;50.70;43.17;;;18.70;83.60;;;;;;5020096;28;20049;-91
2021/06/04 06:44:05;;;;;;;46.25;38.88;;;18.70;84.10;;;;;;5032349;28;20073;-89
2021/06/04 06:46:34;;;;;;;52.63;42.95;;;18.70;83.20;;;;;;5026091;28;20037;-91
2021/06/04 06:49:00;;;;;;;47.20;38.95;;;18.80;83.30;;;;;;5021962;28;20082;-91
2021/06/04 06:51:26;;;;;;;48.83;41.20;;;18.80;83.20;;;;;;4995338;28;20045;-90
2021/06/04 06:53:53;;;;;;;46.83;40.38;;;18.80;83.10;;;;;;5022635;28;20540;-90
2021/06/04 06:56:19;;;;;;;45.88;39.88;;;18.80;83.10;;;;;;5036605;28;20053;-90
2021/06/04 06:58:46;;;;;;;47.25;41.13;;;18.90;82.90;;;;;;5025044;28;20034;-85
2021/06/04 07:01:12;;;;;;;44.30;39.50;;;18.90;83.10;;;;;;5043407;28;20518;-91
2021/06/04 07:03:39;;;;;;;51.13;40.95;;;19.00;82.80;;;;;;5038532;28;20505;-92
2021/06/04 07:06:11;;;;;;;43.65;38.92;;;19.00;82.90;;;;;;5041918;28;20049;-91
2021/06/04 07:08:43;;;;;;;44.58;38.13;;;19.00;82.60;;;;;;5024343;28;20060;-90
2021/06/04 07:11:14;;;;;;;44.55;37.45;;;19.10;82.50;;;;;;5026785;28;20045;-92
2021/06/04 07:13:40;;;;;;;42.53;36.20;;;19.20;82.50;;;;;;5007281;28;20061;-91
2021/06/04 07:16:09;;;;;;;43.42;37.03;;;19.20;82.40;;;;;;5026154;28;20057;-90
2021/06/04 07:18:35;;;;;;;42.58;34.42;;;19.30;82.20;;;;;;5013622;28;20120;-91
2021/06/04 07:21:01;;;;;;;38.95;34.80;;;19.40;82.10;;;;;;5041924;28;20041;-89
2021/06/04 07:23:27;;;;;;;42.63;36.50;;;19.40;81.80;;;;;;5027668;28;20037;-90
2021/06/04 07:26:13;;;;;;;38.55;33.75;;;19.50;81.70;;;;;;5022731;28;20083;-92
2021/06/04 07:28:40;;;;;;;40.67;34.33;;;19.50;81.40;;;;;;5040678;28;20045;-91
2021/06/04 07:31:09;;;;;;;46.22;35.78;;;19.50;81.40;;;;;;5029812;28;20143;-91
2021/06/04 07:33:46;;;;;;;38.47;34.38;;;19.60;81.20;;;;;;5038073;28;20029;-90
2021/06/04 07:36:18;;;;;;;39.30;34.78;;;19.70;80.90;;;;;;5027233;28;20044;-90
2021/06/04 07:38:47;;;;;;;;;;;19.70;80.90;;;;;;5029069;28;20100;-92
2021/06/04 07:41:14;;;;;;;41.65;36.50;;;19.80;80.80;;;;;;5020447;28;20092;-91
2021/06/04 07:43:43;;;;;;;42.97;35.67;;;19.80;80.50;;;;;;5021581;28;20144;-91
2021/06/04 07:46:10;;;;;;;39.90;35.53;;;19.90;80.40;;;;;;5024916;28;20063;-92
2021/06/04 07:48:36;;;;;;;37.38;33.30;;;19.90;80.20;;;;;;5023985;28;20037;-92
2021/06/04 07:51:03;;;;;;;41.22;36.35;;;20.00;80.20;;;;;;5013111;28;20037;-90
2021/06/04 07:53:30;;;;;;;43.22;37.22;;;20.00;80.00;;;;;;5010082;28;20067;-91
2021/06/04 07:55:59;;;;;;;42.20;37.72;;;20.00;79.90;;;;;;5048966;28;20052;-88
2021/06/04 07:58:26;;;;;;;41.33;36.78;;;20.10;79.90;;;;;;5024827;28;20044;-92
2021/06/04 08:00:52;;;;;;;41.58;36.55;;;20.10;79.70;;;;;;5034965;28;20045;-89
2021/06/04 08:03:20;;;;;;;42.75;36.50;;;20.20;79.50;;;;;;5008037;28;20597;-89
2021/06/04 08:05:45;;;;;;;40.22;35.75;;;20.20;79.40;;;;;;5032424;28;20069;-91
2021/06/04 08:08:11;;;;;;;40.45;35.78;;;20.30;79.40;;;;;;5025847;28;20056;-91
2021/06/04 08:10:38;;;;;;;39.92;35.42;;;20.30;79.40;;;;;;5002332;28;20045;-88
2021/06/04 08:13:08;;;;;;;39.47;34.05;;;20.40;79.30;;;;;;5008539;28;20037;-92
2021/06/04 08:15:39;;;;;;;38.58;33.92;;;20.50;79.10;;;;;;5019182;28;20046;-91
2021/06/04 08:18:05;;;;;;;38.47;34.33;;;20.50;79.00;;;;;;5019260;28;20053;-91
2021/06/04 08:20:33;;;;;;;38.35;34.25;;;20.60;79.00;;;;;;5019629;28;20398;-94
2021/06/04 08:23:02;;;;;;;39.67;35.45;;;20.60;78.90;;;;;;4998830;28;20171;-89
2021/06/04 08:25:30;;;;;;;42.05;37.45;;;20.70;78.90;;;;;;5023439;28;20059;-92
2021/06/04 08:27:56;;;;;;;40.85;34.80;;;20.70;78.60;;;;;;5031120;28;20131;-90
2021/06/04 08:30:23;;;;;;;38.85;32.42;;;20.80;78.60;;;;;;5038086;28;20152;-90
2021/06/04 08:32:50;;;;;;;40.30;33.70;;;20.90;78.50;;;;;;5020945;28;20528;-91
2021/06/04 08:35:16;;;;;;;38.85;34.72;;;20.90;78.20;;;;;;5005961;28;20041;-92
2021/06/04 08:37:43;;;;;;;38.70;32.15;;;20.90;78.00;;;;;;5020062;28;20076;-87
2021/06/04 08:40:17;;;;;;;35.05;31.08;;;21.00;77.90;;;;;;5023699;28;20040;-84
2021/06/04 08:43:16;;;;;;;31.75;27.33;;;21.00;77.30;;;;;;5027206;28;20041;-91
2021/06/04 08:45:51;;;;;;;32.53;28.70;;;21.10;77.00;;;;;;5038009;28;20124;-89
2021/06/04 08:48:41;;;;;;;33.83;30.42;;;21.20;76.70;;;;;;5022452;28;20072;-85
2021/06/04 08:51:20;;;;;;;32.08;28.70;;;21.20;76.20;;;;;;5003612;28;20069;-84
2021/06/04 08:54:09;;;;;;;33.97;27.85;;;21.30;75.90;;;;;;5020767;28;20128;-84
2021/06/04 08:56:54;;;;;;;29.90;26.67;;;21.30;75.30;;;;;;5037833;28;20041;-87
2021/06/04 08:59:20;;;;;;;29.95;26.88;;;21.30;75.30;;;;;;5034704;28;20120;-88
2021/06/04 09:02:11;;;;;;;27.75;24.65;;;21.40;75.40;;;;;;4998806;28;20057;-84
2021/06/04 09:04:47;;;;;;;27.98;24.95;;;21.50;75.20;;;;;;5037843;28;20049;-83
2021/06/04 09:07:14;;;;;;;29.17;26.17;;;21.50;75.00;;;;;;5019865;28;20045;-81
2021/06/04 09:09:45;;;;;;;27.92;25.13;;;21.60;74.40;;;;;;5004742;28;20064;-81
2021/06/04 09:12:22;;;;;;;28.90;25.85;;;21.70;74.50;;;;;;5026010;28;20045;-82
2021/06/04 09:14:48;;;;;;;25.08;22.55;;;21.80;74.40;;;;;;4995270;28;20062;-84
2021/06/04 09:17:37;;;;;;;25.50;23.00;;;21.80;74.30;;;;;;5018310;28;20038;-83
2021/06/04 09:20:04;;;;;;;28.05;25.02;;;21.90;72.80;;;;;;5039657;28;20053;-91
2021/06/04 09:22:43;;;;;;;26.83;24.00;;;21.90;72.70;;;;;;5033550;28;20049;-79
2021/06/04 09:25:19;;;;;;;31.65;24.15;;;22.10;72.90;;;;;;5000670;28;20060;-94
2021/06/04 09:27:48;;;;;;;28.13;25.13;;;22.20;73.10;;;;;;5021243;28;20492;-84
2021/06/04 09:30:36;;;;;;;27.42;22.73;;;22.20;73.00;;;;;;5033238;28;20048;-85
2021/06/04 09:33:11;;;;;;;26.13;23.40;;;22.40;73.10;;;;;;5034309;28;20052;-83
2021/06/04 09:35:58;;;;;;;27.42;24.48;;;22.50;73.20;;;;;;5016352;28;20165;-84
2021/06/04 09:38:44;;;;;;;32.85;29.25;;;22.60;73.50;;;;;;5007321;28;20144;-83
2021/06/04 09:41:25;;;;;;;30.50;27.30;;;22.70;73.10;;;;;;5021871;28;20080;-87
2021/06/04 09:44:14;;;;;;;30.63;26.10;;;22.80;72.70;;;;;;5032461;28;20065;-91
2021/06/04 09:47:15;;;;;;;26.10;23.33;;;22.90;73.00;;;;;;5036375;28;20049;-87
2021/06/04 09:49:42;;;;;;;28.92;25.92;;;23.00;73.00;;;;;;5037020;28;20123;-89
2021/06/04 09:52:14;;;;;;;26.60;22.83;;;23.20;72.50;;;;;;5045503;28;20075;-87
2021/06/04 09:54:40;;;;;;;;;;;23.30;72.50;;;;;;5010347;28;20049;-81
2021/06/04 09:57:17;;;;;;;31.27;27.17;;;23.40;72.20;;;;;;5036295;28;19944;-86
2021/06/04 09:59:43;;;;;;;30.65;27.27;;;23.40;71.20;;;;;;5010697;28;20033;-81
2021/06/04 10:02:36;;;;;;;25.85;23.38;;;23.50;70.90;;;;;;5038978;28;20426;-84
2021/06/04 10:05:24;;;;;;;22.80;20.50;;;23.70;71.10;;;;;;5017643;28;20053;-85
2021/06/04 10:08:14;;;;;;;21.00;18.85;;;23.90;70.20;;;;;;5034373;28;20094;-84
2021/06/04 10:10:40;;;;;;;18.67;16.70;;;24.00;69.90;;;;;;5012577;28;20054;-84
2021/06/04 10:13:50;;;;;;;20.33;18.23;;;24.20;69.80;;;;;;5028340;28;20073;-85
2021/06/04 10:19:20;;;;;;;18.55;16.67;;;24.50;68.20;;;;;;5017852;28;20042;-86
2021/06/04 10:21:46;;;;;;;18.27;16.58;;;24.50;67.80;;;;;;5018162;28;20057;-84
2021/06/04 10:24:41;;;;;;;18.92;17.13;;;24.70;67.80;;;;;;5000451;28;20129;-85
2021/06/04 10:27:13;;;;;;;21.00;18.90;;;24.80;66.80;;;;;;5017852;28;20351;-86
2021/06/04 10:29:39;;;;;;;19.45;17.52;;;24.90;66.70;;;;;;5000979;28;20069;-83
2021/06/04 10:32:18;;;;;;;20.25;18.10;;;25.00;66.40;;;;;;5001392;28;20111;-83
2021/06/04 10:34:51;;;;;;;16.95;14.63;;;25.10;65.50;;;;;;5018127;28;20136;-85
2021/06/04 10:37:39;;;;;;;19.77;17.80;;;25.20;65.00;;;;;;5017718;28;20042;-85
2021/06/04 10:40:35;;;;;;;20.85;18.67;;;25.40;65.40;;;;;;5018041;28;20042;-85
2021/06/04 10:43:19;;;;;;;18.45;16.52;;;25.60;65.10;;;;;;5001069;28;20135;-84
2021/06/04 10:45:55;;;;;;;18.98;15.60;;;25.70;65.10;;;;;;5018599;28;20042;-85
2021/06/04 10:48:30;;;;;;;18.88;16.48;;;25.90;64.60;;;;;;5004376;28;20606;-87
2021/06/04 10:51:05;;;;;;;17.55;15.95;;;26.10;64.40;;;;;;5031014;28;20046;-87
2021/06/04 10:53:44;;;;;;;17.15;15.15;;;26.20;63.60;;;;;;5007830;28;20049;-93
2021/06/04 10:56:11;;;;;;;16.92;15.20;;;26.40;63.40;;;;;;5028087;28;20438;-86
2021/06/04 10:58:42;;;;;;;19.20;17.08;;;26.60;63.60;;;;;;5033646;28;20045;-88
2021/06/04 11:01:14;;;;;;;20.25;18.08;;;26.70;63.40;;;;;;5015510;28;20104;-86
2021/06/04 11:03:58;;;;;;;19.67;17.70;;;26.80;62.60;;;;;;4997572;28;20148;-87
2021/06/04 11:06:24;;;;;;;14.82;13.45;;;26.90;62.10;;;;;;5017407;28;20065;-89
2021/06/04 11:09:01;;;;;;;12.40;11.25;;;27.10;61.90;;;;;;5016388;28;20049;-87
2021/06/04 11:11:52;;;;;;;11.93;10.43;;;27.30;61.30;;;;;;5015803;28;20117;-89
2021/06/04 11:14:36;;;;;;;12.43;10.48;;;27.50;60.60;;;;;;5023093;28;20144;-87
2021/06/04 11:17:13;;;;;;;9.88;8.88;;;27.80;60.20;;;;;;5041667;28;20057;-87
2021/06/04 11:19:47;;;;;;;10.23;9.15;;;28.00;59.40;;;;;;5008539;28;20076;-87
2021/06/04 11:22:26;;;;;;;9.93;8.93;;;28.20;59.10;;;;;;5008494;28;20490;-87
2021/06/04 11:25:02;;;;;;;11.18;10.07;;;28.40;58.70;;;;;;5023929;28;20045;-88
2021/06/04 11:27:40;;;;;;;10.98;9.88;;;28.60;58.30;;;;;;5023762;28;20048;-87
2021/06/04 11:30:12;;;;;;;9.98;8.77;;;28.90;56.30;;;;;;5008424;28;20056;-87
2021/06/04 11:33:09;;;;;;;11.43;10.15;;;29.10;55.60;;;;;;5023160;28;20034;-87
2021/06/04 11:35:39;;;;;;;10.90;9.52;;;29.30;55.00;;;;;;5009115;28;20049;-87
2021/06/04 11:38:10;;;;;;;12.93;11.35;;;29.60;54.60;;;;;;4990357;28;20050;-87
2021/06/04 11:40:45;;;;;;;;;;;29.80;53.70;;;;;;5022413;28;20042;-87
2021/06/04 11:43:14;;;;;;;11.73;10.27;;;30.00;54.40;;;;;;5022224;28;20004;-86
2021/06/04 11:46:00;;;;;;;13.57;9.88;;;30.20;52.70;;;;;;5039642;28;20045;-88
2021/06/04 11:48:26;;;;;;;10.77;9.68;;;30.40;51.60;;;;;;5039107;28;20158;-88
2021/06/04 11:51:17;;;;;;;11.50;10.23;;;30.70;51.20;;;;;;5039730;28;20062;-86
2021/06/04 11:53:43;;;;;;;12.35;11.05;;;30.90;52.10;;;;;;5021812;28;20082;-86
2021/06/04 11:56:11;;;;;;;13.38;12.00;;;31.10;51.30;;;;;;5006822;28;20076;-86
2021/06/04 11:58:40;;;;;;;14.18;12.23;;;31.20;50.30;;;;;;5021513;28;20052;-86
2021/06/04 12:01:21;;;;;;;12.18;10.88;;;31.30;49.50;;;;;;5039766;28;20099;-88
2021/06/04 12:04:00;;;;;;;14.30;12.00;;;31.50;48.80;;;;;;5039220;28;20113;-86
2021/06/04 12:06:35;;;;;;;13.98;12.50;;;31.70;48.80;;;;;;5021628;28;20068;-88
2021/06/04 12:09:01;;;;;;;13.70;12.40;;;31.80;48.10;;;;;;5022963;28;20055;-87
2021/06/04 12:11:32;;;;;;;13.82;11.55;;;31.90;47.40;;;;;;5019555;28;20456;-84
2021/06/04 12:14:01;;;;;;;;;;;31.80;47.10;;;;;;5005472;28;20044;-87
2021/06/04 12:16:34;;;;;;;11.82;10.00;;;31.60;48.00;;;;;;5039354;28;20020;-87
2021/06/04 12:19:03;;;;;;;12.68;11.05;;;31.70;46.90;;;;;;5005297;28;20069;-87
2021/06/04 12:21:37;;;;;;;12.57;11.45;;;31.80;47.20;;;;;;5040493;28;20045;-88
2021/06/04 12:24:24;;;;;;;12.50;11.30;;;31.90;46.40;;;;;;5022934;28;20042;-87
2021/06/04 12:26:59;;;;;;;12.30;11.15;;;32.10;46.50;;;;;;5025494;28;20106;-88
2021/06/04 12:29:29;;;;;;;12.77;11.57;;;32.30;46.50;;;;;;5022699;28;20049;-90
2021/06/04 12:32:04;;;;;;;11.98;10.52;;;32.40;45.40;;;;;;5004820;28;20196;-88
2021/06/04 12:34:36;;;;;;;11.73;10.52;;;32.60;45.20;;;;;;5006333;28;20095;-87
2021/06/04 12:37:15;;;;;;;11.57;9.98;;;32.80;44.70;;;;;;5038894;28;20047;-87
2021/06/04 12:39:52;;;;;;;10.85;9.80;;;32.90;44.50;;;;;;5038177;28;20065;-87
2021/06/04 12:42:24;;;;;;;10.60;9.52;;;33.00;44.30;;;;;;5006138;28;20072;-88
2021/06/04 12:45:03;;;;;;;10.50;8.80;;;33.10;44.60;;;;;;5039273;28;20045;-88
2021/06/04 12:47:46;;;;;;;9.77;8.82;;;33.10;43.80;;;;;;5023590;28;20037;-87
2021/06/04 12:50:17;;;;;;;11.52;10.18;;;33.00;43.60;;;;;;5021286;28;20087;-87
2021/06/04 12:52:48;;;;;;;10.90;9.80;;;32.90;43.10;;;;;;5022722;28;20045;-89
2021/06/04 12:55:15;;;;;;;10.70;9.43;;;32.90;42.90;;;;;;5039937;28;20496;-89
2021/06/04 12:57:40;;;;;;;9.98;9.05;;;33.00;42.80;;;;;;5005611;28;20100;-88